Beron de Astrada, Argentina
Current Conditions -  °F | °C
As of 3:00 AM on Thursday 27 Nov 2014 (Local Time) from SARC Reporting Station
Clear Clear  
Wind Chill: 72°   Ceiling: Unl
Heat Index: 72°   Visibility: 6mi
Dew Point: 66°   Wind: 8mph
Humidity: 83%   Direction: 180°S
Pressure: 29.88"   Gusts: NA
Location:  27.55°S, 57.53°W
Report Text: SARC 270600Z 18007KT CAVOK 22/19 Q1012
Loading
Personal Weather Stations






























Interactive Weather Map New forecast layout! Learn more

10-Day Weather Forecast

Advertisements
Track Severe Weather on mobile